Time;durP1;ratioP1;P1;durP2;ratioP2;P2;SDS_P1;SDS_P2;PMS_P1;PMS_P2;Temp;Humidity;BMP_temperature;BMP_pressure;BME280_temperature;BME280_humidity;BME280_pressure;Samples;Min_cycle;Max_cycle;Signal;HPM_P1;HPM_P2
2022/10/16 00:02:20;;;;;;;18.03;8.30;;;;;;;12.21;100.00;100236.28;4954530;28;20039;-77
2022/10/16 00:04:45;;;;;;;14.80;7.80;;;;;;;12.24;100.00;100254.69;4955579;28;20031;-76
2022/10/16 00:07:10;;;;;;;13.93;7.40;;;;;;;12.21;100.00;100247.00;4955526;28;20035;-77
2022/10/16 00:09:36;;;;;;;17.13;8.03;;;;;;;12.22;100.00;100248.69;4954409;28;20385;-76
2022/10/16 00:12:03;;;;;;;14.87;7.53;;;;;;;12.21;100.00;100246.19;4958421;28;20515;-76
2022/10/16 00:14:29;;;;;;;16.75;8.40;;;;;;;12.27;100.00;100255.31;4953783;28;20039;-76
2022/10/16 00:16:54;;;;;;;16.23;8.37;;;;;;;12.19;100.00;100246.34;4959244;28;20031;-77
2022/10/16 00:19:19;;;;;;;13.33;7.87;;;;;;;12.21;100.00;100252.34;4960772;28;20220;-77
2022/10/16 00:21:45;;;;;;;12.73;7.83;;;;;;;12.16;100.00;100253.94;4960831;28;20031;-77
2022/10/16 00:24:10;;;;;;;16.20;8.53;;;;;;;12.19;100.00;100258.91;4961092;28;20486;-76
2022/10/16 00:26:37;;;;;;;23.70;10.27;;;;;;;12.23;100.00;100268.25;4958887;28;20043;-76
2022/10/16 00:29:03;;;;;;;11.75;7.78;;;;;;;12.09;100.00;100256.50;4961748;28;20266;-76
2022/10/16 00:31:29;;;;;;;10.45;7.43;;;;;;;12.08;100.00;100262.91;4961257;28;20074;-76
2022/10/16 00:33:54;;;;;;;14.38;7.07;;;;;;;12.12;100.00;100274.03;4976501;28;20113;-76
2022/10/16 00:36:22;;;;;;;13.40;7.60;;;;;;;12.08;100.00;100276.28;4959736;28;20034;-75
2022/10/16 00:38:52;;;;;;;12.88;6.93;;;;;;;12.14;100.00;100272.03;4975929;28;20294;-75
2022/10/16 00:41:19;;;;;;;13.20;6.60;;;;;;;12.13;100.00;100265.84;4961992;28;20121;-75
2022/10/16 00:43:50;;;;;;;14.65;7.13;;;;;;;12.13;100.00;100271.19;4960829;28;20063;-76
2022/10/16 00:46:29;;;;;;;13.68;7.53;;;;;;;12.11;100.00;100270.53;4959875;28;20038;-76
2022/10/16 00:49:01;;;;;;;17.88;8.05;;;;;;;12.11;100.00;100273.22;4960687;28;20114;-75
2022/10/16 00:51:32;;;;;;;12.68;7.30;;;;;;;12.09;100.00;100269.91;4961904;28;20118;-76
2022/10/16 00:53:58;;;;;;;12.80;7.43;;;;;;;12.03;100.00;100259.91;4957422;28;20559;-76
2022/10/16 00:56:24;;;;;;;;;;;;;;;12.05;100.00;100276.63;4961355;28;20039;-76
2022/10/16 00:58:49;;;;;;;15.82;7.82;;;;;;;12.03;100.00;100274.16;4975279;28;20336;-76
2022/10/16 01:01:15;;;;;;;16.37;7.97;;;;;;;12.01;100.00;100272.63;4959786;28;20365;-75
2022/10/16 01:03:40;;;;;;;13.60;8.10;;;;;;;12.00;100.00;100281.69;4974469;28;20644;-75
2022/10/16 01:06:18;;;;;;;13.10;8.13;;;;;;;12.02;100.00;100285.03;4960496;28;20384;-76
2022/10/16 01:09:11;;;;;;;19.45;7.95;;;;;;;11.97;100.00;100290.91;4958858;28;20114;-75
2022/10/16 01:12:00;;;;;;;15.15;8.60;;;;;;;11.96;100.00;100301.78;4941817;28;20421;-76
2022/10/16 01:14:44;;;;;;;14.65;7.75;;;;;;;11.98;100.00;100305.13;4948177;29;20043;-75
2022/10/16 01:17:18;;;;;;;15.00;7.55;;;;;;;12.01;100.00;100302.94;4976545;28;20046;-76
2022/10/16 01:20:01;;;;;;;16.88;9.13;;;;;;;11.95;100.00;100300.16;4960091;28;20059;-76
2022/10/16 01:22:49;;;;;;;16.60;9.57;;;;;;;11.97;100.00;100308.81;4972930;28;20139;-75
2022/10/16 01:25:49;;;;;;;15.40;9.50;;;;;;;11.92;100.00;100309.38;4967188;28;20126;-76
2022/10/16 01:28:18;;;;;;;14.57;8.48;;;;;;;11.91;100.00;100314.88;4951072;28;20035;-75
2022/10/16 01:30:45;;;;;;;14.65;8.77;;;;;;;11.89;100.00;100299.00;4962249;28;20062;-75
2022/10/16 01:33:18;;;;;;;17.92;7.97;;;;;;;11.93;100.00;100311.00;4959737;28;20114;-76
2022/10/16 01:35:55;;;;;;;16.83;9.10;;;;;;;11.93;100.00;100310.19;4957987;28;20561;-76
2022/10/16 01:38:30;;;;;;;14.68;8.73;;;;;;;11.92;100.00;100313.91;4957999;28;20038;-75
2022/10/16 01:41:01;;;;;;;13.57;8.32;;;;;;;11.88;100.00;100310.75;4961166;28;20034;-76
2022/10/16 01:43:46;;;;;;;20.48;8.95;;;;;;;11.95;100.00;100316.19;4956383;28;20584;-76
2022/10/16 01:46:15;;;;;;;16.42;8.50;;;;;;;11.94;100.00;100315.38;4961059;28;20819;-76
2022/10/16 01:48:41;;;;;;;16.85;8.05;;;;;;;11.97;100.00;100311.50;4956972;28;20469;-76
2022/10/16 01:51:11;;;;;;;16.08;8.65;;;;;;;11.88;100.00;100300.03;4958802;28;20527;-76
2022/10/16 01:53:37;;;;;;;14.80;7.97;;;;;;;11.93;100.00;100305.66;4956783;28;20054;-76
2022/10/16 01:56:07;;;;;;;15.77;8.07;;;;;;;11.95;100.00;100303.66;4960321;28;20392;-76
2022/10/16 01:58:37;;;;;;;14.23;7.43;;;;;;;12.07;100.00;100313.91;4940029;28;20046;-77
2022/10/16 02:01:07;;;;;;;12.48;7.32;;;;;;;12.03;100.00;100298.22;4966711;28;20041;-77
2022/10/16 02:03:34;;;;;;;14.07;7.60;;;;;;;12.01;100.00;100296.72;4956071;28;20476;-76
2022/10/16 02:05:59;;;;;;;9.30;6.40;;;;;;;12.02;100.00;100277.00;4967069;28;20488;-76
2022/10/16 02:08:28;;;;;;;16.13;7.50;;;;;;;12.00;100.00;100279.03;4961483;28;20030;-76
2022/10/16 02:10:59;;;;;;;15.32;7.72;;;;;;;11.96;100.00;100272.38;4962904;28;20278;-76
2022/10/16 02:13:35;;;;;;;14.82;7.70;;;;;;;11.91;100.00;100272.09;4955626;28;20042;-77
2022/10/16 02:16:01;;;;;;;17.92;8.57;;;;;;;11.89;100.00;100271.44;4959162;28;20548;-76
2022/10/16 02:18:29;;;;;;;18.67;7.50;;;;;;;11.86;100.00;100271.78;4955247;28;20150;-76
2022/10/16 02:20:59;;;;;;;16.75;8.20;;;;;;;11.93;100.00;100280.78;4974533;28;20353;-76
2022/10/16 02:23:35;;;;;;;14.48;7.13;;;;;;;11.90;100.00;100281.97;4955577;28;20098;-76
2022/10/16 02:26:04;;;;;;;16.88;7.10;;;;;;;11.92;100.00;100274.59;4954794;28;20440;-77
2022/10/16 02:28:40;;;;;;;17.33;7.63;;;;;;;11.88;100.00;100275.97;4956372;28;20054;-77
2022/10/16 02:31:11;;;;;;;12.45;5.80;;;;;;;11.94;100.00;100277.06;4972670;28;20493;-77
2022/10/16 02:33:40;;;;;;;16.95;7.15;;;;;;;11.87;100.00;100270.75;4955932;28;20343;-76
2022/10/16 02:36:06;;;;;;;10.07;5.47;;;;;;;11.89;100.00;100268.75;4962691;28;20185;-77
2022/10/16 02:38:32;;;;;;;11.40;6.65;;;;;;;11.90;100.00;100259.75;4953752;28;20036;-76
2022/10/16 02:40:58;;;;;;;9.15;5.35;;;;;;;11.91;100.00;100262.22;4959827;28;20476;-76
2022/10/16 02:43:24;;;;;;;;;;;;;;;11.88;100.00;100272.47;4959623;28;20035;-77
2022/10/16 02:45:50;;;;;;;15.45;5.85;;;;;;;11.87;100.00;100268.06;4973134;28;19918;-77
2022/10/16 02:48:16;;;;;;;10.65;5.15;;;;;;;11.82;100.00;100258.78;4956357;28;20389;-76
2022/10/16 02:50:41;;;;;;;8.47;4.53;;;;;;;11.86;100.00;100258.41;4957454;28;20035;-76
2022/10/16 02:53:06;;;;;;;9.73;4.73;;;;;;;11.87;100.00;100260.06;4961289;28;20121;-77
2022/10/16 02:55:32;;;;;;;10.17;4.90;;;;;;;11.86;100.00;100242.34;4954591;28;20039;-77
2022/10/16 02:57:57;;;;;;;9.15;5.90;;;;;;;11.89;100.00;100252.72;4965327;28;20031;-76
2022/10/16 03:00:23;;;;;;;10.80;4.40;;;;;;;11.78;100.00;100229.91;4965901;28;20476;-76
2022/10/16 03:02:48;;;;;;;9.00;4.83;;;;;;;11.84;100.00;100246.03;4959109;28;20412;-76
2022/10/16 03:05:13;;;;;;;11.07;3.97;;;;;;;11.85;100.00;100244.22;4955775;28;20015;-76
2022/10/16 03:07:39;;;;;;;7.87;3.80;;;;;;;11.75;100.00;100230.25;4939235;28;20541;-76
2022/10/16 03:10:05;;;;;;;10.97;4.93;;;;;;;11.84;100.00;100243.34;4959152;28;20034;-77
2022/10/16 03:12:30;;;;;;;7.85;4.50;;;;;;;11.76;100.00;100227.41;4959018;28;20042;-77
2022/10/16 03:14:56;;;;;;;9.45;4.05;;;;;;;11.69;100.00;100222.97;4957579;28;20030;-77
2022/10/16 03:17:22;;;;;;;7.32;4.15;;;;;;;11.61;100.00;100216.69;4954474;28;20507;-77
2022/10/16 03:19:48;;;;;;;10.95;4.05;;;;;;;11.68;100.00;100226.66;4956537;28;20042;-76
2022/10/16 03:22:13;;;;;;;9.83;4.17;;;;;;;11.61;100.00;100227.41;4956011;28;20026;-77
2022/10/16 03:24:38;;;;;;;9.80;4.30;;;;;;;11.60;100.00;100233.75;4955516;28;20766;-76
2022/10/16 03:27:04;;;;;;;6.80;3.37;;;;;;;11.54;100.00;100228.28;4964600;28;20516;-76
2022/10/16 03:29:29;;;;;;;7.63;3.27;;;;;;;11.54;100.00;100218.44;4954083;28;20027;-77
2022/10/16 03:31:56;;;;;;;8.77;3.67;;;;;;;11.51;100.00;100215.28;4960966;28;20126;-77
2022/10/16 03:34:21;;;;;;;;;;;;;;;11.54;100.00;100228.28;4971667;28;20295;-76
2022/10/16 03:36:46;;;;;;;5.57;3.65;;;;;;;11.47;100.00;100211.31;4948548;28;19972;-77
2022/10/16 03:39:12;;;;;;;7.70;2.83;;;;;;;11.50;100.00;100213.63;4956022;28;20038;-77
2022/10/16 03:41:37;;;;;;;8.67;3.10;;;;;;;11.51;100.00;100228.66;4956279;28;20085;-76
2022/10/16 03:44:02;;;;;;;9.33;3.87;;;;;;;11.51;100.00;100234.00;4958432;28;20498;-76
2022/10/16 03:46:28;;;;;;;7.73;2.37;;;;;;;11.43;100.00;100231.41;4969556;28;20292;-76
2022/10/16 03:48:53;;;;;;;8.32;2.90;;;;;;;11.39;100.00;100229.09;4973165;28;20376;-76
2022/10/16 03:51:19;;;;;;;7.93;3.47;;;;;;;11.47;100.00;100233.53;4954733;28;20115;-77
2022/10/16 03:53:44;;;;;;;11.43;2.83;;;;;;;11.48;100.00;100239.72;4956788;28;20030;-76
2022/10/16 03:56:09;;;;;;;6.57;2.83;;;;;;;11.50;100.00;100233.19;4971779;28;20042;-76
2022/10/16 03:58:35;;;;;;;4.87;2.67;;;;;;;11.51;100.00;100239.34;4955780;28;20436;-76
2022/10/16 04:01:03;;;;;;;4.73;2.70;;;;;;;11.53;100.00;100240.81;4958457;28;20439;-76
2022/10/16 04:03:28;;;;;;;6.97;2.58;;;;;;;11.51;100.00;100247.38;4954907;28;20035;-76
2022/10/16 04:05:54;;;;;;;4.63;2.63;;;;;;;11.50;100.00;100248.38;4957541;28;20485;-76
2022/10/16 04:08:20;;;;;;;9.15;2.67;;;;;;;11.44;100.00;100236.56;4955772;28;20299;-76
2022/10/16 04:10:46;;;;;;;5.30;2.53;;;;;;;11.36;100.00;100237.47;4959470;28;20043;-76
2022/10/16 04:13:11;;;;;;;3.77;2.27;;;;;;;11.36;100.00;100237.47;4943849;28;20023;-76
2022/10/16 04:15:37;;;;;;;10.05;2.45;;;;;;;11.46;100.00;100239.88;4953974;28;20038;-76
2022/10/16 04:18:03;;;;;;;4.47;2.37;;;;;;;11.35;100.00;100230.44;4964226;28;20031;-76
2022/10/16 04:20:29;;;;;;;4.00;2.63;;;;;;;11.37;100.00;100244.47;4953498;28;20287;-76
2022/10/16 04:22:55;;;;;;;5.40;2.33;;;;;;;11.38;100.00;100251.50;4972735;28;20031;-77
2022/10/16 04:25:21;;;;;;;7.97;2.60;;;;;;;11.31;100.00;100252.41;4959248;28;20030;-76
2022/10/16 04:27:46;;;;;;;6.75;2.25;;;;;;;11.31;100.00;100261.22;4957096;28;20130;-76
2022/10/16 04:30:12;;;;;;;4.47;2.27;;;;;;;11.29;100.00;100267.78;4955406;28;20472;-76
2022/10/16 04:32:38;;;;;;;3.90;2.10;;;;;;;11.24;100.00;100270.97;4954335;28;20043;-76
2022/10/16 04:35:03;;;;;;;6.97;2.47;;;;;;;11.29;100.00;100284.63;4946087;28;20035;-76
2022/10/16 04:37:29;;;;;;;9.27;2.63;;;;;;;11.21;100.00;100276.66;4957781;28;20035;-77
2022/10/16 04:39:54;;;;;;;4.23;1.93;;;;;;;11.17;100.00;100286.88;4956364;28;20035;-76
2022/10/16 04:42:20;;;;;;;6.00;2.10;;;;;;;11.19;100.00;100302.72;4955561;28;20037;-76
2022/10/16 04:44:46;;;;;;;4.75;2.42;;;;;;;11.15;100.00;100309.44;4955460;28;20039;-75
2022/10/16 04:47:12;;;;;;;5.90;2.33;;;;;;;11.14;100.00;100303.28;4954990;28;20038;-76
2022/10/16 04:49:37;;;;;;;9.57;2.08;;;;;;;11.14;100.00;100311.31;4954139;28;20037;-76
2022/10/16 04:52:03;;;;;;;8.93;2.30;;;;;;;11.22;100.00;100310.41;4964108;28;20412;-77
2022/10/16 04:54:28;;;;;;;5.80;2.20;;;;;;;11.23;100.00;100313.91;4957098;28;20508;-76
2022/10/16 04:56:53;;;;;;;6.37;2.40;;;;;;;11.12;100.00;100293.75;4955842;28;20117;-75
2022/10/16 04:59:21;;;;;;;4.97;2.20;;;;;;;11.28;100.00;100320.38;4955478;28;20046;-76
2022/10/16 05:01:46;;;;;;;4.28;2.10;;;;;;;11.33;100.00;100301.97;4940514;28;20035;-76
2022/10/16 05:04:12;;;;;;;6.27;1.57;;;;;;;11.34;100.00;100297.47;4958689;28;20459;-77
2022/10/16 05:06:38;;;;;;;5.00;1.80;;;;;;;11.41;100.00;100298.41;4958264;28;20031;-76
2022/10/16 05:09:05;;;;;;;4.25;1.77;;;;;;;11.40;100.00;100292.25;4967447;28;20122;-76
2022/10/16 05:11:30;;;;;;;;;;;;;;;11.45;100.00;100310.41;4956922;28;20506;-76
2022/10/16 05:13:55;;;;;;;;;;;;;;;11.47;100.00;100307.53;4944027;28;19914;-76
2022/10/16 05:16:21;;;;;;;3.40;1.80;;;;;;;11.48;100.00;100303.88;4957243;28;19910;-76
2022/10/16 05:18:46;;;;;;;12.47;1.73;;;;;;;11.44;100.00;100281.19;4966960;28;20150;-76
2022/10/16 05:21:11;;;;;;;5.00;1.60;;;;;;;11.52;100.00;100275.75;4969631;28;20039;-77
2022/10/16 05:23:37;;;;;;;3.43;1.33;;;;;;;11.58;100.00;100281.22;4965881;28;20047;-76
2022/10/16 05:26:02;;;;;;;3.43;2.03;;;;;;;11.58;100.00;100264.34;4969355;28;20026;-77
2022/10/16 05:28:30;;;;;;;2.33;1.15;;;;;;;11.57;100.00;100260.84;4964813;28;20023;-77
2022/10/16 05:30:55;;;;;;;7.03;1.40;;;;;;;11.58;100.00;100245.63;4965543;28;20034;-77
2022/10/16 05:33:21;;;;;;;2.83;1.50;;;;;;;11.68;100.00;100262.22;4969169;28;20031;-76
2022/10/16 05:35:47;;;;;;;7.68;1.58;;;;;;;11.70;100.00;100254.88;4967674;28;20046;-78
2022/10/16 05:38:13;;;;;;;3.20;1.17;;;;;;;11.65;100.00;100246.56;4967925;28;20034;-76
2022/10/16 05:40:39;;;;;;;7.97;1.60;;;;;;;11.69;100.00;100252.41;4967794;28;20082;-76
2022/10/16 05:43:04;;;;;;;9.82;1.55;;;;;;;11.72;100.00;100255.53;4967804;28;20034;-76
2022/10/16 05:45:30;;;;;;;3.23;1.30;;;;;;;11.70;100.00;100260.22;4967988;28;20081;-77
2022/10/16 05:47:55;;;;;;;6.78;2.42;;;;;;;11.67;100.00;100260.59;4968203;28;20117;-77
2022/10/16 05:50:21;;;;;;;5.03;1.50;;;;;;;11.72;100.00;100266.22;4951645;28;20038;-77
2022/10/16 05:52:46;;;;;;;3.17;1.47;;;;;;;11.79;100.00;100264.47;4987843;22;20043;-71
2022/10/16 05:55:11;;;;;;;3.70;1.47;;;;;;;11.81;100.00;100259.78;4973996;28;20391;-72
2022/10/16 05:57:37;;;;;;;4.27;1.23;;;;;;;11.81;100.00;100258.94;4956605;28;20184;-72
2022/10/16 06:00:03;;;;;;;3.17;1.20;;;;;;;11.76;100.00;100264.84;4958857;28;20199;-72
2022/10/16 06:02:38;;;;;;;4.10;1.27;;;;;;;11.82;100.00;100282.00;4958143;28;20039;-72
2022/10/16 06:05:04;;;;;;;3.85;1.45;;;;;;;11.81;100.00;100278.50;4959616;28;20037;-72
2022/10/16 06:07:34;;;;;;;10.32;1.67;;;;;;;11.79;100.00;100285.88;4971539;28;20038;-72
2022/10/16 06:09:59;;;;;;;5.50;1.98;;;;;;;11.70;100.00;100289.63;4977885;28;20066;-73
2022/10/16 06:12:26;;;;;;;3.50;1.60;;;;;;;11.62;100.00;100295.88;4962392;28;20073;-72
2022/10/16 06:14:51;;;;;;;3.88;1.30;;;;;;;11.60;100.00;100307.78;4959820;28;20507;-73
2022/10/16 06:17:17;;;;;;;6.80;1.87;;;;;;;11.63;100.00;100323.44;4957712;28;20492;-72
2022/10/16 06:19:42;;;;;;;5.03;1.37;;;;;;;11.59;100.00;100327.53;4958017;28;20500;-72
2022/10/16 06:22:07;;;;;;;2.07;1.70;;;;;;;11.54;100.00;100330.72;4959004;28;20388;-72
2022/10/16 06:24:33;;;;;;;4.00;1.80;;;;;;;11.53;100.00;100339.75;4956685;28;20066;-72
2022/10/16 06:26:58;;;;;;;5.57;1.40;;;;;;;11.56;100.00;100344.72;4966879;28;20039;-72
2022/10/16 06:29:23;;;;;;;11.03;2.43;;;;;;;11.54;100.00;100336.06;4964108;28;20035;-72
2022/10/16 06:31:49;;;;;;;6.13;2.17;;;;;;;11.53;100.00;100333.56;4967696;28;20527;-72
2022/10/16 06:34:14;;;;;;;5.10;2.17;;;;;;;11.53;100.00;100345.09;4964311;28;20499;-72
2022/10/16 06:36:40;;;;;;;6.17;1.50;;;;;;;11.56;100.00;100351.91;4967854;28;20101;-72
2022/10/16 06:39:07;;;;;;;2.20;1.40;;;;;;;11.56;100.00;100355.41;4968094;28;20588;-72
2022/10/16 06:41:33;;;;;;;7.40;1.40;;;;;;;11.60;100.00;100348.72;4966645;28;20031;-73
2022/10/16 06:44:09;;;;;;;5.15;1.50;;;;;;;11.59;100.00;100339.03;4966886;28;20149;-72
2022/10/16 06:46:34;;;;;;;1.87;1.20;;;;;;;11.61;100.00;100346.84;4967499;28;20117;-72
2022/10/16 06:49:00;;;;;;;4.67;1.43;;;;;;;11.75;100.00;100364.81;4968042;28;20033;-72
2022/10/16 06:51:25;;;;;;;3.10;1.40;;;;;;;11.68;100.00;100341.63;4967894;28;20312;-72
2022/10/16 06:53:53;;;;;;;3.17;1.25;;;;;;;11.73;100.00;100356.16;4967553;28;20044;-72
2022/10/16 06:56:24;;;;;;;4.88;1.90;;;;;;;11.74;100.00;100359.66;4966330;28;20042;-72
2022/10/16 06:58:50;;;;;;;6.68;2.15;;;;;;;11.75;100.00;100380.00;4966055;28;20035;-72
2022/10/16 07:01:17;;;;;;;5.03;1.50;;;;;;;11.89;100.00;100378.44;4967717;28;20015;-72
2022/10/16 07:03:44;;;;;;;5.82;1.75;;;;;;;11.94;100.00;100386.75;4968159;28;20126;-72
2022/10/16 07:06:12;;;;;;;6.53;1.83;;;;;;;11.97;100.00;100386.41;4965973;28;20026;-71
2022/10/16 07:08:39;;;;;;;2.25;1.42;;;;;;;12.28;100.00;100407.69;4967469;28;20158;-72
2022/10/16 07:11:08;;;;;;;10.50;1.90;;;;;;;12.45;100.00;100390.47;4966364;28;20051;-72
2022/10/16 07:13:37;;;;;;;7.03;1.95;;;;;;;12.49;100.00;100352.59;4967313;28;20042;-72
2022/10/16 07:16:14;;;;;;;5.75;1.65;;;;;;;12.61;100.00;100381.41;4965781;28;20468;-72
2022/10/16 07:18:40;;;;;;;5.35;1.80;;;;;;;13.08;100.00;100374.81;4965827;28;20054;-72
2022/10/16 07:21:07;;;;;;;4.40;1.75;;;;;;;13.49;100.00;100331.34;4967441;28;20054;-71
2022/10/16 07:23:32;;;;;;;6.03;1.63;;;;;;;13.32;100.00;100248.69;4966884;28;20114;-72
2022/10/16 07:25:58;;;;;;;8.43;2.37;;;;;;;13.12;100.00;100264.56;4966511;28;20556;-72
2022/10/16 07:28:23;;;;;;;7.93;1.67;;;;;;;12.81;100.00;100271.03;4965348;28;20045;-72
2022/10/16 07:30:49;;;;;;;11.43;2.60;;;;;;;12.82;100.00;100307.50;4965590;28;20097;-72
2022/10/16 07:33:14;;;;;;;2.97;1.97;;;;;;;12.87;100.00;100340.75;4977513;28;20069;-72
2022/10/16 07:35:53;;;;;;;6.57;2.13;;;;;;;12.78;100.00;100370.50;4981375;28;20089;-72
2022/10/16 07:38:20;;;;;;;7.00;2.30;;;;;;;12.81;100.00;100405.81;4963128;28;20034;-71
2022/10/16 07:40:45;;;;;;;4.18;2.67;;;;;;;12.81;100.00;100429.91;4966744;28;20058;-72
2022/10/16 07:43:11;;;;;;;12.17;2.40;;;;;;;12.87;100.00;100442.53;4964822;28;20882;-72
2022/10/16 07:45:37;;;;;;;9.23;2.72;;;;;;;12.97;100.00;100438.75;4961232;28;20089;-73
2022/10/16 07:48:02;;;;;;;4.40;2.13;;;;;;;13.13;100.00;100437.75;4966694;28;20027;-72
2022/10/16 07:50:28;;;;;;;10.25;2.92;;;;;;;13.25;100.00;100426.38;4966256;28;20023;-72
2022/10/16 07:52:53;;;;;;;5.83;2.10;;;;;;;13.17;100.00;100428.31;4964898;28;20037;-72
2022/10/16 07:55:18;;;;;;;6.17;2.27;;;;;;;13.12;100.00;100420.84;4965310;28;20376;-72
2022/10/16 07:57:44;;;;;;;4.93;2.00;;;;;;;12.98;100.00;100441.25;4966722;28;20073;-72
2022/10/16 08:00:13;;;;;;;7.73;2.77;;;;;;;13.18;100.00;100468.34;4966905;28;20036;-72
2022/10/16 08:02:40;;;;;;;7.10;2.40;;;;;;;14.00;100.00;100439.53;4965380;28;20097;-72
2022/10/16 08:05:06;;;;;;;6.05;1.90;;;;;;;14.31;100.00;100326.44;4965085;28;20451;-72
2022/10/16 08:07:32;;;;;;;6.82;2.58;;;;;;;14.59;100.00;100283.44;4965288;28;20049;-73
2022/10/16 08:09:58;;;;;;;6.97;2.40;;;;;;;14.96;100.00;100214.94;4966780;28;20010;-73
2022/10/16 08:12:24;;;;;;;5.65;2.38;;;;;;;15.41;100.00;100082.53;4959331;28;20126;-72
2022/10/16 08:14:49;;;;;;;5.20;2.03;;;;;;;15.59;100.00;100053.09;4957402;28;20029;-72
2022/10/16 08:17:15;;;;;;;2.90;1.90;;;;;;;15.68;100.00;100034.03;4956410;28;20464;-72
2022/10/16 08:19:44;;;;;;;6.80;2.30;;;;;;;16.13;100.00;99953.25;4954677;28;20045;-72
2022/10/16 08:22:10;;;;;;;5.03;1.73;;;;;;;16.49;100.00;99901.38;4956923;28;20372;-72
2022/10/16 08:24:36;;;;;;;6.00;1.90;;;;;;;15.72;100.00;99747.38;4955409;28;20376;-72
2022/10/16 08:27:02;;;;;;;6.95;2.08;;;;;;;15.87;100.00;99860.06;4964121;28;20038;-72
2022/10/16 08:29:27;;;;;;;4.65;1.90;;;;;;;16.50;100.00;99939.91;4954961;28;20472;-72
2022/10/16 08:31:53;;;;;;;3.27;1.87;;;;;;;15.82;100.00;99815.78;4972512;28;20551;-72
2022/10/16 08:34:18;;;;;;;4.33;1.93;;;;;;;16.34;100.00;99865.88;4938368;28;20113;-72
2022/10/16 08:36:44;;;;;;;4.18;1.90;;;;;;;16.08;100.00;99794.22;4958200;28;20042;-72
2022/10/16 08:39:09;;;;;;;6.67;2.33;;;;;;;16.51;100.00;99953.16;4962016;28;20067;-72
2022/10/16 08:42:06;;;;;;;3.60;2.27;;;;;;;16.62;100.00;99978.56;4961809;28;20035;-72
2022/10/16 08:45:19;;;;;;;6.10;2.00;;;;;;;16.55;100.00;99861.94;4958548;28;20046;-72
2022/10/16 08:48:03;;;;;;;5.82;2.10;;;;;;;16.68;100.00;99797.13;4960199;28;20043;-72
2022/10/16 08:50:31;;;;;;;7.88;2.00;;;;;;;17.60;100.00;99840.09;4958464;28;20042;-72
2022/10/16 08:52:57;;;;;;;5.88;2.65;;;;;;;17.18;100.00;99794.22;4959932;28;20419;-73
2022/10/16 08:55:41;;;;;;;6.50;2.05;;;;;;;17.35;100.00;99780.06;4958777;28;20472;-72
2022/10/16 08:58:15;;;;;;;3.92;1.63;;;;;;;17.38;100.00;99736.47;4964601;28;20035;-72
2022/10/16 09:00:43;;;;;;;5.40;1.80;;;;;;;17.28;100.00;99721.66;4958654;28;20556;-72
2022/10/16 09:03:27;;;;;;;9.40;2.13;;;;;;;18.16;100.00;99946.03;4961403;28;20405;-72
2022/10/16 09:06:07;;;;;;;8.82;3.15;;;;;;;17.71;100.00;99665.72;4961101;28;20045;-72
2022/10/16 09:08:51;;;;;;;5.13;1.80;;;;;;;17.64;100.00;99684.75;4973215;28;20038;-73
2022/10/16 09:11:45;;;;;;;5.85;2.05;;;;;;;18.28;100.00;99732.63;4951843;28;20041;-73
2022/10/16 09:14:18;;;;;;;9.02;1.60;;;;;;;17.94;100.00;99478.63;4961448;28;20038;-72
2022/10/16 09:16:57;;;;;;;5.93;2.60;;;;;;;17.45;100.00;99542.91;4962867;28;20070;-72
2022/10/16 09:19:37;;;;;;;6.10;1.70;;;;;;;18.34;100.00;99688.44;4958391;28;20031;-73
2022/10/16 09:22:12;;;;;;;7.65;2.17;;;;;;;19.06;100.00;99701.47;4958842;28;20404;-72
2022/10/16 09:24:38;;;;;;;6.20;1.90;;;;;;;18.53;100.00;99383.69;4959080;28;20489;-72
2022/10/16 09:27:03;;;;;;;5.70;1.90;;;;;;;17.82;100.00;99465.16;4966898;28;20030;-72
2022/10/16 09:29:28;;;;;;;9.40;3.47;;;;;;;18.77;100.00;99716.88;4957190;28;20417;-72
2022/10/16 09:31:57;;;;;;;5.37;1.60;;;;;;;18.15;100.00;99447.41;4943339;28;20027;-72
2022/10/16 09:34:35;;;;;;;6.53;2.08;;;;;;;17.54;100.00;99467.81;4961812;28;20035;-72
2022/10/16 09:37:03;;;;;;;6.85;2.30;;;;;;;16.92;100.00;99678.66;4971745;28;20042;-72
2022/10/16 09:39:29;;;;;;;6.10;2.33;;;;;;;16.34;100.00;99869.41;4972147;28;20118;-72
2022/10/16 09:41:55;;;;;;;7.27;1.80;;;;;;;17.05;100.00;100055.97;4960319;28;20042;-72
2022/10/16 09:44:27;;;;;;;7.18;1.88;;;;;;;17.81;100.00;99992.66;4958828;28;20538;-72
2022/10/16 09:47:17;;;;;;;5.80;1.88;;;;;;;17.91;100.00;99708.56;4973975;28;20476;-72
2022/10/16 09:49:51;;;;;;;8.18;2.20;;;;;;;17.92;100.00;99710.25;4958911;28;20031;-72
2022/10/16 09:52:18;;;;;;;7.28;2.00;;;;;;;18.43;100.00;99889.69;4961833;28;20315;-72
2022/10/16 09:54:51;;;;;;;6.03;1.90;;;;;;;18.60;100.00;99748.41;4943085;28;20034;-72
2022/10/16 09:57:16;;;;;;;6.82;1.75;;;;;;;18.14;100.00;99573.53;4958572;28;20035;-73
2022/10/16 09:59:47;;;;;;;9.17;2.10;;;;;;;17.84;100.00;99721.38;4973520;28;20031;-73
2022/10/16 10:02:15;;;;;;;4.97;2.70;;;;;;;17.48;100.00;99780.69;4958412;28;20294;-72
2022/10/16 10:04:51;;;;;;;5.72;1.83;;;;;;;17.11;100.00;99919.41;4965549;28;20035;-73
2022/10/16 10:07:43;;;;;;;6.57;1.63;;;;;;;17.04;100.00;99935.66;4962103;28;20031;-72
2022/10/16 10:10:23;;;;;;;6.20;1.52;;;;;;;16.77;100.00;100016.78;4963702;28;20101;-72
2022/10/16 10:12:48;;;;;;;5.40;1.98;;;;;;;16.41;100.00;100007.56;4961859;28;20045;-73
2022/10/16 10:15:21;;;;;;;4.40;1.83;;;;;;;16.40;100.00;100139.75;4962262;28;20387;-72
2022/10/16 10:17:57;;;;;;;3.83;1.85;;;;;;;16.41;100.00;100214.16;4958719;28;20078;-73
2022/10/16 10:20:32;;;;;;;;;;;;;;;16.87;100.00;100297.50;4956361;28;20039;-73
2022/10/16 10:22:58;;;;;;;5.22;1.90;;;;;;;17.70;100.00;100194.00;4973928;28;19918;-73
2022/10/16 10:25:35;;;;;;;6.60;1.92;;;;;;;18.14;100.00;100108.38;4957302;28;20090;-72
2022/10/16 10:28:16;;;;;;;8.00;1.80;;;;;;;18.04;100.00;99980.31;4956743;28;20027;-72
2022/10/16 10:31:04;;;;;;;5.85;2.42;;;;;;;17.82;100.00;100031.31;4958337;28;20035;-72
2022/10/16 10:33:55;;;;;;;7.68;1.98;;;;;;;18.31;100.00;100149.09;4971023;28;20039;-72
2022/10/16 10:36:36;;;;;;;6.13;1.60;;;;;;;17.47;100.00;99972.53;4959124;28;20027;-72
2022/10/16 10:39:10;;;;;;;5.97;1.80;;;;;;;17.71;100.00;100130.03;4959356;28;20035;-73
2022/10/16 10:42:02;;;;;;;6.57;1.80;;;;;;;17.47;100.00;100034.59;4957631;28;20549;-72
2022/10/16 10:44:43;;;;;;;5.82;1.83;;;;;;;18.86;100.00;100202.22;4956697;28;20031;-72
2022/10/16 10:47:43;;;;;;;8.50;1.90;;;;;;;18.56;99.30;99527.25;4962082;28;20052;-71
2022/10/16 10:50:23;;;;;;;3.58;1.98;;;;;;;18.75;100.00;99705.44;4893698;28;20043;-73
2022/10/16 10:53:07;;;;;;;7.93;1.48;;;;;;;19.24;97.23;99695.00;4962080;28;20551;-72
2022/10/16 10:55:59;;;;;;;8.93;1.58;;;;;;;19.29;94.55;99605.81;4974060;28;20043;-72
2022/10/16 10:59:01;;;;;;;6.80;1.30;;;;;;;19.77;89.37;99397.72;4959935;28;20374;-72
2022/10/16 11:01:33;;;;;;;3.38;1.23;;;;;;;19.06;89.22;99270.56;4955905;28;20039;-72
2022/10/16 11:04:29;;;;;;;6.70;1.20;;;;;;;18.79;91.01;99421.94;4955457;28;20043;-72
2022/10/16 11:06:59;;;;;;;4.07;1.52;;;;;;;19.66;89.50;99528.59;4958452;28;20031;-72
2022/10/16 11:09:46;;;;;;;5.75;1.70;;;;;;;19.23;86.78;99233.41;4956317;28;20031;-72
2022/10/16 11:12:38;;;;;;;6.90;1.60;;;;;;;19.33;89.22;99504.09;4978198;28;20397;-72
2022/10/16 11:15:13;;;;;;;5.72;1.27;;;;;;;18.87;89.07;99387.19;4954040;28;20117;-72
2022/10/16 11:17:41;;;;;;;6.60;1.45;;;;;;;18.43;88.63;99254.66;4955243;28;20043;-72
2022/10/16 11:20:27;;;;;;;10.35;1.42;;;;;;;18.64;90.37;99481.97;4945816;28;20026;-71
2022/10/16 11:23:00;;;;;;;4.25;1.30;;;;;;;19.03;88.36;99415.22;4957290;28;20136;-72
2022/10/16 11:25:30;;;;;;;6.22;1.63;;;;;;;18.65;85.47;99126.81;4957969;28;20070;-72
2022/10/16 11:28:05;;;;;;;5.80;1.08;;;;;;;18.88;84.91;99172.50;4961970;28;20023;-72
2022/10/16 11:30:38;;;;;;;9.18;2.08;;;;;;;19.19;83.56;99221.47;4955388;28;20235;-73
2022/10/16 11:33:21;;;;;;;5.03;1.42;;;;;;;19.74;82.69;99320.53;4964926;28;20313;-72